Pontefract, United Kingdom
Current Conditions -  °F | °C
As of 3:20 PM on Wednesday 26 Nov 2014 (Local Time) from EGNM Reporting Station
Haze Haze  
Wind Chill: 39°   Ceiling: 300
Heat Index: 43°   Visibility: 1.5mi
Dew Point: 43°   Wind: 6mph
Humidity: 100%   Direction: 70°ENE
Pressure: 29.85"   Gusts: NA
Location:  53.69°N, 1.31°W
Report Text: EGNM 261520Z 07005KT 040V100 2500 BR SCT002 BKN003 06/06 Q1011
Loading
Personal Weather Stations






























Interactive Weather Map New forecast layout! Learn more

10-Day Weather Forecast

Advertisements
Track Severe Weather on mobile